Time;durP1;ratioP1;P1;durP2;ratioP2;P2;SDS_P1;SDS_P2;PMS_P1;PMS_P2;Temp;Humidity;BMP_temperature;BMP_pressure;BME280_temperature;BME280_humidity;BME280_pressure;Samples;Min_cycle;Max_cycle;Signal;HPM_P1;HPM_P2
2022/03/22 00:00:10;;;;;;;3.07;2.77;;;3.60;92.90;;;;;;5122532;27;20210;-51
2022/03/22 00:02:55;;;;;;;3.27;2.53;;;3.60;93.10;;;;;;5128731;27;20230;-56
2022/03/22 00:05:40;;;;;;;3.00;2.73;;;3.50;92.80;;;;;;5130571;27;20268;-59
2022/03/22 00:08:25;;;;;;;3.37;2.37;;;3.30;92.30;;;;;;5129622;27;20232;-53
2022/03/22 00:11:09;;;;;;;2.50;2.30;;;3.20;92.30;;;;;;5135045;27;20196;-59
2022/03/22 00:13:54;;;;;;;5.80;3.37;;;3.10;92.40;;;;;;5132877;27;20245;-60
2022/03/22 00:16:38;;;;;;;2.50;2.30;;;3.20;92.50;;;;;;5133941;27;20290;-49
2022/03/22 00:19:23;;;;;;;3.57;3.03;;;3.20;92.40;;;;;;5133662;27;20209;-54
2022/03/22 00:22:09;;;;;;;4.53;2.43;;;3.20;92.40;;;;;;5130423;27;20218;-58
2022/03/22 00:24:54;;;;;;;3.07;2.10;;;3.20;92.30;;;;;;5119551;27;20195;-54
2022/03/22 00:27:53;;;;;;;2.90;2.70;;;3.20;92.20;;;;;;5131132;27;20207;-51
2022/03/22 00:30:37;;;;;;;4.23;2.67;;;3.20;92.10;;;;;;5130418;27;20210;-56
2022/03/22 00:33:21;;;;;;;3.80;2.67;;;3.10;92.00;;;;;;5131158;27;20223;-51
2022/03/22 00:36:06;;;;;;;2.50;2.37;;;3.10;92.00;;;;;;5131655;27;20192;-49
2022/03/22 00:38:50;;;;;;;2.70;2.50;;;3.00;92.20;;;;;;5130681;27;20286;-53
2022/03/22 00:41:35;;;;;;;3.77;2.30;;;2.90;92.40;;;;;;5134248;27;20206;-54
2022/03/22 00:44:19;;;;;;;2.70;2.10;;;2.90;92.40;;;;;;5131650;27;20219;-53
2022/03/22 00:47:06;;;;;;;7.50;2.47;;;2.90;92.30;;;;;;5128903;27;20225;-47
2022/03/22 00:49:50;;;;;;;3.00;2.40;;;2.90;92.30;;;;;;5123285;27;20199;-56
2022/03/22 00:52:35;;;;;;;3.57;1.40;;;2.80;92.40;;;;;;5124038;27;20252;-52
2022/03/22 00:55:23;;;;;;;2.57;2.37;;;2.80;92.60;;;;;;5132498;27;20183;-52
2022/03/22 00:58:08;;;;;;;4.63;2.07;;;2.90;92.70;;;;;;5133062;27;20216;-50
2022/03/22 01:00:52;;;;;;;2.77;2.10;;;2.90;92.90;;;;;;5125663;27;20200;-54
2022/03/22 01:03:36;;;;;;;2.57;2.37;;;2.80;93.10;;;;;;5132412;27;20294;-54
2022/03/22 01:06:21;;;;;;;4.07;2.00;;;2.80;93.30;;;;;;5125061;27;20244;-53
2022/03/22 01:09:06;;;;;;;2.30;2.10;;;2.80;93.40;;;;;;5127955;27;20195;-51
2022/03/22 01:11:51;;;;;;;3.13;1.87;;;2.80;93.50;;;;;;5136256;27;20186;-49
2022/03/22 01:14:35;;;;;;;4.13;3.07;;;2.70;93.80;;;;;;5131077;27;20211;-54
2022/03/22 01:17:20;;;;;;;3.47;2.83;;;2.70;94.10;;;;;;5130057;27;20211;-52
2022/03/22 01:20:06;;;;;;;1.67;1.57;;;2.70;94.20;;;;;;5130313;27;20207;-47
2022/03/22 01:22:51;;;;;;;3.20;2.10;;;2.60;94.20;;;;;;5130837;27;20194;-52
2022/03/22 01:25:37;;;;;;;4.30;2.53;;;2.50;94.30;;;;;;5128500;27;20197;-53
2022/03/22 01:28:22;;;;;;;5.60;3.37;;;2.40;94.20;;;;;;5127085;27;20190;-53
2022/03/22 01:31:07;;;;;;;3.30;2.63;;;2.40;94.30;;;;;;5127145;27;20275;-56
2022/03/22 01:33:51;;;;;;;3.33;2.70;;;2.40;94.30;;;;;;5132830;27;20284;-48
2022/03/22 01:36:36;;;;;;;2.67;2.30;;;2.40;94.30;;;;;;5132063;27;20180;-54
2022/03/22 01:39:20;;;;;;;3.60;3.10;;;2.30;94.50;;;;;;5130396;27;20275;-53
2022/03/22 01:42:05;;;;;;;2.07;1.93;;;2.30;94.60;;;;;;5133302;27;20209;-53
2022/03/22 01:44:49;;;;;;;8.90;2.90;;;2.20;94.40;;;;;;5123346;27;20241;-47
2022/03/22 01:47:35;;;;;;;6.43;3.00;;;2.20;94.60;;;;;;5128248;27;20217;-54
2022/03/22 01:50:20;;;;;;;3.47;2.67;;;2.20;94.50;;;;;;5134966;27;20187;-58
2022/03/22 01:53:07;;;;;;;4.03;3.07;;;2.20;94.40;;;;;;5127172;27;20218;-57
2022/03/22 01:55:51;;;;;;;4.00;3.07;;;2.20;94.50;;;;;;5128930;27;20225;-51
2022/03/22 01:58:36;;;;;;;4.23;2.37;;;2.10;94.40;;;;;;5133231;27;20199;-55
2022/03/22 02:07:31;;;;;;;7.73;4.67;;;2.00;94.70;;;;;;5133715;27;20194;-54
2022/03/22 02:10:16;;;;;;;13.77;7.57;;;2.00;94.80;;;;;;5134276;27;20244;-58
2022/03/22 02:13:01;;;;;;;3.57;2.17;;;2.00;94.80;;;;;;5136431;27;20260;-54
2022/03/22 02:15:50;;;;;;;2.13;1.87;;;2.00;94.80;;;;;;5128034;27;20191;-56
2022/03/22 02:18:35;;;;;;;5.93;2.40;;;2.00;94.20;;;;;;5134519;27;20199;-53
2022/03/22 02:21:23;;;;;;;5.73;3.37;;;2.00;94.10;;;;;;5136874;27;20183;-51
2022/03/22 02:24:08;;;;;;;1.43;1.13;;;2.10;94.00;;;;;;5131300;27;20186;-56
2022/03/22 02:26:52;;;;;;;2.53;2.30;;;2.00;93.80;;;;;;5132213;27;20240;-53
2022/03/22 02:29:37;;;;;;;3.60;2.27;;;1.90;93.80;;;;;;5136933;27;20227;-50
2022/03/22 02:32:25;;;;;;;3.37;2.40;;;1.90;93.80;;;;;;5136424;27;20252;-52
2022/03/22 02:35:09;;;;;;;4.33;2.83;;;1.90;93.60;;;;;;5131794;27;20192;-54
2022/03/22 02:37:53;;;;;;;1.73;1.60;;;1.90;93.70;;;;;;5131272;27;20203;-53
2022/03/22 02:40:38;;;;;;;4.50;2.63;;;1.90;93.60;;;;;;5134030;27;20284;-50
2022/03/22 02:43:22;;;;;;;3.10;2.03;;;1.80;93.70;;;;;;5130646;27;20222;-59
2022/03/22 02:46:06;;;;;;;3.30;1.93;;;1.80;93.80;;;;;;5133422;27;20237;-57
2022/03/22 02:48:51;;;;;;;2.87;1.93;;;1.80;93.80;;;;;;5132770;27;20202;-54
2022/03/22 02:51:36;;;;;;;2.57;2.33;;;1.70;93.80;;;;;;5133548;27;20370;-53
2022/03/22 02:54:20;;;;;;;4.03;2.83;;;1.60;93.70;;;;;;5136343;27;20188;-53
2022/03/22 02:57:05;;;;;;;4.37;2.23;;;1.60;93.80;;;;;;5128755;27;20202;-52
2022/03/22 02:59:49;;;;;;;4.60;2.40;;;1.60;93.70;;;;;;5134241;27;20249;-56
2022/03/22 03:02:57;;;;;;;5.47;1.53;;;1.60;93.70;;;;;;5133602;27;20203;-58
2022/03/22 03:05:42;;;;;;;2.57;2.00;;;1.50;93.60;;;;;;5133973;27;20742;-55
2022/03/22 03:08:26;;;;;;;3.17;1.90;;;1.50;93.60;;;;;;5135741;27;20183;-55
2022/03/22 03:11:12;;;;;;;4.80;2.00;;;1.60;93.90;;;;;;5134781;27;20195;-54
2022/03/22 03:20:41;;;;;;;3.43;3.13;;;1.40;94.70;;;;;;5136597;27;20179;-54
2022/03/22 03:23:25;;;;;;;2.70;2.43;;;1.20;95.10;;;;;;5131528;27;20214;-54
2022/03/22 03:26:09;;;;;;;2.17;2.03;;;1.30;95.50;;;;;;5132803;27;20198;-52
2022/03/22 03:28:54;;;;;;;3.93;1.80;;;1.30;95.30;;;;;;5137307;27;20195;-52
2022/03/22 03:31:39;;;;;;;2.27;2.07;;;1.20;95.30;;;;;;5122802;27;20225;-51
2022/03/22 03:34:23;;;;;;;3.57;1.90;;;1.10;95.20;;;;;;5135966;27;20191;-56
2022/03/22 03:37:07;;;;;;;2.23;1.97;;;1.10;95.40;;;;;;5132422;27;20210;-59
2022/03/22 03:39:52;;;;;;;2.20;2.03;;;1.20;95.40;;;;;;5133929;27;20300;-58
2022/03/22 03:42:42;;;;;;;2.10;1.83;;;1.10;95.20;;;;;;5132137;27;20207;-57
2022/03/22 03:48:29;;;;;;;2.47;1.80;;;1.10;94.50;;;;;;5130852;27;20203;-52
2022/03/22 03:51:14;;;;;;;4.27;2.17;;;1.00;94.40;;;;;;5137450;27;20179;-55
2022/03/22 03:53:58;;;;;;;2.27;2.07;;;1.00;94.40;;;;;;5129089;27;20198;-58
2022/03/22 03:56:42;;;;;;;1.97;1.53;;;1.00;94.40;;;;;;5132853;27;20183;-57
2022/03/22 03:59:26;;;;;;;2.57;2.27;;;1.00;94.30;;;;;;5138511;27;20179;-53
2022/03/22 04:02:11;;;;;;;2.00;1.90;;;0.90;94.10;;;;;;5129973;27;20252;-56
2022/03/22 04:04:56;;;;;;;3.33;1.83;;;0.80;94.20;;;;;;5136284;27;20287;-58
2022/03/22 04:07:40;;;;;;;4.93;2.17;;;0.80;94.20;;;;;;5131158;27;20276;-60
2022/03/22 04:10:26;;;;;;;4.63;3.10;;;0.80;94.40;;;;;;5128360;27;20190;-56
2022/03/22 04:13:11;;;;;;;3.07;2.00;;;0.80;94.30;;;;;;5133163;27;20313;-56
2022/03/22 04:15:55;;;;;;;5.57;2.07;;;0.80;94.50;;;;;;5131146;27;20235;-55
2022/03/22 04:18:39;;;;;;;3.67;3.33;;;0.70;94.40;;;;;;5123048;27;20232;-54
2022/03/22 04:21:24;;;;;;;2.50;1.63;;;0.80;94.30;;;;;;5137471;27;20208;-52
2022/03/22 04:24:10;;;;;;;4.83;2.00;;;0.70;94.30;;;;;;5128580;27;20289;-59
2022/03/22 04:32:41;;;;;;;1.50;1.33;;;0.70;94.30;;;;;;5134673;27;20230;-56
2022/03/22 04:33:02;;;;;;;4.77;2.13;;;0.70;94.20;;;;;;5128666;27;20195;-54
2022/03/22 04:35:46;;;;;;;4.07;2.10;;;0.70;94.20;;;;;;5134260;27;20197;-54
2022/03/22 04:38:34;;;;;;;3.77;2.53;;;0.70;94.10;;;;;;5137480;27;20215;-52
2022/03/22 04:41:18;;;;;;;3.13;2.10;;;0.60;94.20;;;;;;5130576;27;20243;-58
2022/03/22 04:44:03;;;;;;;1.60;1.43;;;0.70;94.00;;;;;;5129284;27;20218;-57
2022/03/22 04:46:47;;;;;;;5.57;2.20;;;0.60;94.00;;;;;;5125461;27;20199;-54
2022/03/22 04:49:33;;;;;;;1.93;1.83;;;0.70;93.90;;;;;;5134255;27;20191;-52
2022/03/22 04:58:24;;;;;;;1.43;1.33;;;0.70;94.00;;;;;;5128936;27;20202;-54
2022/03/22 05:01:08;;;;;;;4.50;2.03;;;0.60;94.10;;;;;;5132658;27;20275;-48
2022/03/22 05:03:53;;;;;;;1.67;1.57;;;0.70;94.20;;;;;;5134605;27;20284;-57
2022/03/22 05:06:38;;;;;;;2.10;1.87;;;0.70;94.10;;;;;;5132240;27;20190;-56
2022/03/22 05:09:22;;;;;;;21.10;10.13;;;0.70;94.20;;;;;;5132046;27;20196;-50
2022/03/22 05:12:13;;;;;;;7.73;2.90;;;0.80;94.90;;;;;;5131260;27;20273;-57
2022/03/22 05:14:57;;;;;;;5.07;1.80;;;0.90;96.30;;;;;;5131379;27;20202;-50
2022/03/22 05:17:42;;;;;;;2.50;1.83;;;0.90;95.60;;;;;;5134473;27;20188;-55
2022/03/22 05:20:26;;;;;;;4.17;2.77;;;1.00;95.50;;;;;;5130237;27;20303;-53
2022/03/22 05:23:12;;;;;;;3.50;2.60;;;1.00;95.10;;;;;;5131868;27;20227;-49
2022/03/22 05:25:57;;;;;;;1.93;1.60;;;1.10;95.40;;;;;;5135477;27;20214;-53
2022/03/22 05:28:43;;;;;;;9.13;3.63;;;1.10;94.50;;;;;;5127347;27;20718;-54
2022/03/22 05:31:27;;;;;;;3.33;2.83;;;1.10;95.40;;;;;;5131826;27;20235;-55
2022/03/22 05:34:12;;;;;;;3.87;2.50;;;1.40;95.90;;;;;;5130533;27;20241;-49
2022/03/22 05:36:56;;;;;;;1.93;1.83;;;1.40;95.60;;;;;;5130232;27;20187;-54
2022/03/22 05:39:40;;;;;;;2.00;1.90;;;1.40;94.10;;;;;;5130912;27;20272;-53
2022/03/22 05:42:25;;;;;;;1.83;1.73;;;1.30;93.60;;;;;;5130170;27;20209;-59
2022/03/22 05:45:11;;;;;;;2.37;2.27;;;1.20;93.40;;;;;;5134051;27;20203;-55
2022/03/22 05:47:56;;;;;;;2.47;2.13;;;1.10;93.20;;;;;;5139431;27;20212;-54
2022/03/22 05:50:41;;;;;;;1.60;1.47;;;1.10;93.00;;;;;;5133041;27;20183;-59
2022/03/22 05:53:25;;;;;;;3.13;2.93;;;1.10;93.10;;;;;;5137246;27;20201;-57
2022/03/22 05:56:09;;;;;;;1.63;1.60;;;1.10;93.10;;;;;;5139611;27;20327;-47
2022/03/22 05:58:54;;;;;;;4.67;2.30;;;1.10;92.90;;;;;;5133343;27;20567;-49
2022/03/22 06:01:39;;;;;;;2.37;1.90;;;1.20;92.90;;;;;;5133511;27;20191;-52
2022/03/22 06:04:24;;;;;;;3.23;1.70;;;1.40;92.90;;;;;;5137830;27;20241;-55
2022/03/22 06:07:08;;;;;;;2.13;1.90;;;1.40;92.70;;;;;;5135094;27;20288;-52
2022/03/22 06:09:52;;;;;;;3.00;2.60;;;1.30;92.70;;;;;;5126599;27;20195;-55
2022/03/22 06:12:42;;;;;;;2.97;2.10;;;1.40;92.70;;;;;;5134279;27;20195;-55
2022/03/22 06:15:31;;;;;;;2.27;1.97;;;1.40;92.90;;;;;;5129601;27;20214;-54
2022/03/22 06:18:15;;;;;;;2.73;1.87;;;1.30;92.60;;;;;;5135664;27;20188;-57
2022/03/22 06:21:00;;;;;;;6.87;2.67;;;1.30;92.60;;;;;;5132591;27;20324;-52
2022/03/22 06:23:47;;;;;;;4.53;2.70;;;1.40;92.30;;;;;;5136034;27;20246;-51
2022/03/22 06:26:31;;;;;;;6.07;2.60;;;1.50;92.40;;;;;;5139523;27;20199;-53
2022/03/22 06:29:15;;;;;;;1.60;1.50;;;1.60;92.00;;;;;;5127323;27;20191;-50
2022/03/22 06:31:59;;;;;;;3.30;1.97;;;1.60;91.60;;;;;;5136390;27;20305;-52
2022/03/22 06:34:44;;;;;;;3.17;1.93;;;1.60;91.20;;;;;;5137605;27;20249;-58
2022/03/22 06:37:29;;;;;;;2.53;1.87;;;1.60;91.00;;;;;;5125789;27;20186;-55
2022/03/22 06:40:15;;;;;;;2.43;2.13;;;1.70;91.00;;;;;;5130330;27;20240;-55
2022/03/22 06:43:02;;;;;;;3.23;2.03;;;1.80;90.80;;;;;;5137988;27;20238;-59
2022/03/22 06:45:47;;;;;;;1.67;1.57;;;1.90;90.60;;;;;;5128538;27;20203;-55
2022/03/22 06:48:31;;;;;;;1.87;1.70;;;1.90;90.40;;;;;;5131575;27;20195;-51
2022/03/22 06:51:16;;;;;;;2.97;1.70;;;1.90;90.20;;;;;;5134650;27;20191;-56
2022/03/22 06:54:00;;;;;;;2.20;1.63;;;2.00;89.60;;;;;;5128763;27;20214;-57
2022/03/22 06:56:45;;;;;;;2.80;2.40;;;2.10;89.40;;;;;;5126276;27;20198;-45
2022/03/22 06:59:29;;;;;;;2.67;1.60;;;2.10;89.20;;;;;;5107442;27;20227;-54
2022/03/22 07:02:13;;;;;;;13.53;2.13;;;2.10;88.30;;;;;;5143686;27;20258;-46
2022/03/22 07:04:58;;;;;;;2.53;2.33;;;2.20;88.50;;;;;;5148387;27;20287;-56
2022/03/22 07:07:43;;;;;;;2.37;1.67;;;2.30;88.40;;;;;;5141612;27;20198;-57
2022/03/22 07:10:27;;;;;;;2.30;2.17;;;2.30;88.30;;;;;;5107086;28;20188;-44
2022/03/22 07:13:11;;;;;;;2.53;2.33;;;2.30;88.40;;;;;;5106297;28;20270;-47
2022/03/22 07:15:56;;;;;;;3.33;2.60;;;2.40;88.00;;;;;;5103503;28;20220;-46
2022/03/22 07:18:40;;;;;;;2.17;1.90;;;2.50;88.10;;;;;;5122644;27;20264;-58
2022/03/22 07:21:24;;;;;;;1.60;1.50;;;2.60;87.80;;;;;;5143725;27;20194;-49
2022/03/22 07:24:10;;;;;;;1.37;1.30;;;2.70;87.50;;;;;;5145499;27;20273;-60
2022/03/22 07:26:55;;;;;;;2.30;1.80;;;2.80;87.40;;;;;;5148274;27;20199;-50
2022/03/22 07:29:39;;;;;;;2.47;2.00;;;2.90;87.20;;;;;;5132473;27;20196;-60
2022/03/22 07:32:24;;;;;;;3.80;2.30;;;3.00;86.50;;;;;;5130443;27;20283;-58
2022/03/22 07:35:09;;;;;;;4.27;1.87;;;3.10;86.30;;;;;;5118441;27;20208;-60
2022/03/22 07:37:53;;;;;;;4.90;2.10;;;3.20;86.20;;;;;;5119952;27;20233;-45
2022/03/22 07:40:38;;;;;;;1.77;1.67;;;3.30;86.00;;;;;;5106427;28;20306;-58
2022/03/22 07:43:23;;;;;;;2.63;2.00;;;3.40;86.40;;;;;;5123408;27;20237;-58
2022/03/22 07:46:08;;;;;;;7.93;2.17;;;3.50;86.00;;;;;;5144033;27;20195;-51
2022/03/22 07:48:53;;;;;;;2.60;2.10;;;3.60;85.60;;;;;;5135871;27;20256;-54
2022/03/22 07:54:41;;;;;;;1.80;1.63;;;3.90;85.20;;;;;;5117977;27;20214;-61
2022/03/22 07:57:25;;;;;;;2.40;2.00;;;4.00;85.40;;;;;;5112829;27;20203;-47
2022/03/22 08:00:10;;;;;;;2.93;2.13;;;4.10;85.10;;;;;;5123819;27;20230;-60
2022/03/22 08:02:57;;;;;;;3.13;1.83;;;4.20;84.80;;;;;;5114215;27;20292;-47
2022/03/22 08:05:45;;;;;;;2.70;2.23;;;4.40;84.80;;;;;;5128552;27;20192;-52
2022/03/22 08:08:30;;;;;;;2.40;2.27;;;4.50;84.80;;;;;;5121647;27;20179;-64
2022/03/22 08:11:15;;;;;;;3.30;2.43;;;4.70;84.80;;;;;;5127552;27;20264;-60
2022/03/22 08:14:01;;;;;;;2.23;1.60;;;4.90;84.30;;;;;;5129484;27;20203;-59
2022/03/22 08:16:47;;;;;;;2.17;1.73;;;5.10;83.90;;;;;;5124743;27;20191;-53
2022/03/22 08:19:32;;;;;;;1.97;1.60;;;5.50;82.80;;;;;;5111156;27;20231;-49
2022/03/22 08:22:17;;;;;;;1.97;1.87;;;5.90;82.10;;;;;;5122939;27;20186;-61
2022/03/22 08:25:01;;;;;;;2.50;2.27;;;6.40;81.50;;;;;;5117621;27;20290;-51
2022/03/22 08:27:45;;;;;;;3.13;2.37;;;6.80;78.90;;;;;;5118559;27;20199;-55
2022/03/22 08:30:30;;;;;;;3.20;2.73;;;7.30;78.00;;;;;;5122822;27;20242;-57
2022/03/22 08:33:15;;;;;;;3.93;2.60;;;7.40;75.50;;;;;;5125038;27;20227;-58
2022/03/22 08:35:59;;;;;;;2.73;2.37;;;7.80;74.60;;;;;;5128730;27;20296;-47
2022/03/22 08:38:44;;;;;;;4.03;2.70;;;8.20;73.40;;;;;;5104031;27;20215;-58
2022/03/22 08:41:28;;;;;;;2.90;2.17;;;8.60;71.70;;;;;;5107079;27;20223;-61
2022/03/22 08:44:13;;;;;;;4.17;2.63;;;8.60;71.00;;;;;;5125090;27;20223;-60
2022/03/22 08:47:01;;;;;;;2.47;2.27;;;8.60;69.90;;;;;;5120994;27;20192;-61
2022/03/22 08:49:45;;;;;;;7.23;2.97;;;8.60;69.20;;;;;;5124067;27;20191;-53
2022/03/22 08:52:30;;;;;;;3.13;2.40;;;8.60;69.00;;;;;;5106655;27;20204;-60
2022/03/22 08:55:17;;;;;;;3.53;2.10;;;9.00;68.80;;;;;;5119953;27;20225;-61
2022/03/22 08:58:05;;;;;;;3.93;3.00;;;9.50;67.20;;;;;;5133595;27;20202;-57
2022/03/22 09:00:49;;;;;;;3.87;2.23;;;9.70;65.40;;;;;;5135652;27;20195;-64
2022/03/22 09:03:35;;;;;;;2.43;1.70;;;9.80;62.50;;;;;;5130167;27;20265;-58
2022/03/22 09:06:19;;;;;;;4.00;2.40;;;10.30;61.50;;;;;;5125537;27;20204;-61
2022/03/22 09:09:04;;;;;;;2.97;2.20;;;10.80;59.90;;;;;;5130647;27;20236;-64
2022/03/22 09:11:48;;;;;;;3.60;2.60;;;11.30;58.80;;;;;;5120721;27;20260;-59
2022/03/22 09:14:33;;;;;;;3.87;2.30;;;11.60;58.30;;;;;;5129525;27;20223;-47
2022/03/22 09:17:17;;;;;;;3.30;2.43;;;12.00;56.70;;;;;;5123393;27;20222;-47
2022/03/22 09:20:02;;;;;;;3.40;2.43;;;12.30;55.10;;;;;;5121926;27;20241;-52
2022/03/22 09:22:49;;;;;;;2.60;1.93;;;12.70;53.30;;;;;;5134065;27;20195;-55
2022/03/22 09:25:33;;;;;;;2.33;2.10;;;12.50;51.10;;;;;;5119480;27;20240;-49
2022/03/22 09:28:18;;;;;;;3.07;2.20;;;12.90;50.00;;;;;;5129672;27;20213;-46
2022/03/22 09:31:02;;;;;;;3.13;2.30;;;13.10;49.10;;;;;;5122814;27;20201;-64
2022/03/22 09:33:48;;;;;;;2.13;1.70;;;13.30;49.00;;;;;;5118281;27;20205;-46
2022/03/22 09:36:32;;;;;;;2.13;1.83;;;13.80;48.50;;;;;;5130027;27;20240;-61
2022/03/22 09:39:17;;;;;;;2.57;2.17;;;13.80;47.60;;;;;;5114637;27;20244;-64
2022/03/22 09:42:03;;;;;;;6.30;2.60;;;13.10;47.50;;;;;;5138010;27;20311;-60
2022/03/22 09:44:49;;;;;;;3.80;2.50;;;13.80;47.60;;;;;;5134407;27;20319;-56
2022/03/22 09:47:35;;;;;;;2.70;2.07;;;13.90;46.40;;;;;;5112397;27;20210;-59
2022/03/22 09:51:44;;;;;;;2.00;1.90;;;14.80;45.50;;;;;;5113847;27;20236;-56
2022/03/22 09:53:25;;;;;;;3.43;1.60;;;15.00;45.00;;;;;;5139565;27;20207;-55
2022/03/22 09:56:09;;;;;;;3.13;2.07;;;15.30;44.10;;;;;;5118193;27;20276;-60
2022/03/22 09:58:54;;;;;;;3.20;1.57;;;15.90;43.90;;;;;;5123928;27;20191;-52
2022/03/22 10:01:39;;;;;;;2.07;1.87;;;15.70;42.80;;;;;;5115174;27;20192;-61
2022/03/22 10:04:23;;;;;;;2.03;1.92;;;15.90;43.70;;;;;;5116320;27;20647;-57
2022/03/22 10:07:16;;;;;;;2.08;1.90;;;16.10;43.10;;;;;;5109859;27;20210;-56
2022/03/22 10:10:05;;;;;;;1.90;1.75;;;16.10;42.60;;;;;;5119837;27;20238;-61
2022/03/22 10:12:57;;;;;;;1.73;1.63;;;17.20;42.30;;;;;;5116321;27;20195;-55
2022/03/22 10:15:42;;;;;;;1.90;1.80;;;17.40;40.10;;;;;;5118327;27;20330;-49
2022/03/22 10:18:26;;;;;;;2.15;1.70;;;17.20;39.50;;;;;;5117598;27;20603;-61
2022/03/22 10:21:10;;;;;;;1.60;1.50;;;16.90;40.10;;;;;;5136833;27;20190;-59
2022/03/22 10:23:55;;;;;;;1.63;1.48;;;17.50;39.30;;;;;;5105554;27;20242;-47
2022/03/22 10:26:40;;;;;;;2.05;1.80;;;17.40;39.20;;;;;;5109734;27;20198;-54
2022/03/22 10:29:29;;;;;;;2.97;2.25;;;16.90;39.80;;;;;;5117300;27;20186;-56
2022/03/22 10:32:14;;;;;;;2.72;2.08;;;17.10;40.70;;;;;;5122982;27;20200;-47
2022/03/22 10:35:22;;;;;;;2.10;2.00;;;17.50;38.90;;;;;;5124443;27;20306;-47
2022/03/22 10:38:09;;;;;;;3.00;1.90;;;18.20;39.10;;;;;;5121464;27;20207;-43
2022/03/22 10:40:53;;;;;;;2.05;1.95;;;18.50;38.30;;;;;;5128082;27;20548;-57
2022/03/22 10:43:37;;;;;;;3.65;2.38;;;18.50;38.70;;;;;;5125305;27;20187;-47
2022/03/22 10:46:27;;;;;;;2.15;2.00;;;19.00;38.90;;;;;;5117676;27;20226;-45
2022/03/22 10:49:12;;;;;;;2.53;2.30;;;18.20;39.10;;;;;;5129641;27;20187;-57
2022/03/22 10:51:57;;;;;;;2.10;1.90;;;18.70;39.50;;;;;;5143381;27;20218;-54
2022/03/22 10:54:41;;;;;;;2.22;1.92;;;19.40;38.00;;;;;;5128283;27;20218;-54
2022/03/22 10:57:32;;;;;;;4.40;2.58;;;20.50;37.00;;;;;;5117503;27;20211;-62
2022/03/22 11:00:18;;;;;;;2.33;2.22;;;20.70;36.80;;;;;;5123521;27;20195;-65
2022/03/22 11:03:05;;;;;;;3.15;2.00;;;21.30;37.00;;;;;;5133666;27;20192;-58
2022/03/22 11:05:53;;;;;;;2.50;1.95;;;21.80;35.70;;;;;;5122544;27;20251;-58
2022/03/22 11:08:41;;;;;;;18.77;10.05;;;21.30;35.80;;;;;;5123824;27;20229;-52
2022/03/22 11:11:26;;;;;;;5.38;3.75;;;21.90;35.30;;;;;;5126951;27;20196;-48
2022/03/22 11:14:14;;;;;;;4.30;2.92;;;21.20;35.70;;;;;;5124972;27;20227;-45
2022/03/22 11:16:58;;;;;;;2.45;2.13;;;21.90;35.30;;;;;;5126614;27;20255;-52
2022/03/22 11:19:45;;;;;;;2.20;2.00;;;21.70;34.60;;;;;;5127474;27;20230;-51
2022/03/22 11:22:29;;;;;;;2.40;2.20;;;22.40;34.20;;;;;;5124004;27;20199;-62
2022/03/22 11:25:18;;;;;;;7.30;5.57;;;22.60;33.70;;;;;;5127665;27;20191;-46
2022/03/22 11:28:09;;;;;;;7.63;4.65;;;21.70;33.60;;;;;;5126725;27;20188;-50
2022/03/22 11:30:53;;;;;;;1.98;1.85;;;21.80;34.10;;;;;;5124185;27;20223;-46
2022/03/22 11:36:49;;;;;;;3.63;3.22;;;22.70;32.70;;;;;;5127819;27;20306;-58
2022/03/22 11:42:36;;;;;;;2.05;1.95;;;22.00;34.10;;;;;;5113770;27;20221;-47
2022/03/22 11:45:21;;;;;;;9.23;6.85;;;22.70;31.90;;;;;;5125180;27;20198;-57
2022/03/22 11:48:09;;;;;;;2.20;2.00;;;23.40;31.40;;;;;;5163440;27;20203;-49
2022/03/22 11:51:06;;;;;;;1.95;1.85;;;22.20;31.50;;;;;;5147815;27;20195;-46
2022/03/22 11:53:51;;;;;;;1.83;1.73;;;22.20;31.10;;;;;;5145219;27;20292;-54
2022/03/22 11:56:46;;;;;;;1.70;1.60;;;22.90;30.80;;;;;;5102215;28;20274;-58
2022/03/22 11:59:41;;;;;;;1.67;1.58;;;22.60;31.50;;;;;;5116206;27;20187;-48
2022/03/22 12:02:30;;;;;;;2.70;1.73;;;22.50;30.80;;;;;;5119040;27;20287;-57
2022/03/22 12:05:20;;;;;;;1.38;1.38;;;23.40;30.50;;;;;;5121595;27;20360;-48
2022/03/22 12:08:07;;;;;;;2.83;1.77;;;23.20;30.30;;;;;;5125932;27;20223;-45
2022/03/22 12:10:54;;;;;;;2.55;1.92;;;23.70;29.50;;;;;;5123954;27;20187;-53
2022/03/22 12:13:48;;;;;;;1.60;1.50;;;24.20;30.40;;;;;;5122416;27;20250;-56
2022/03/22 12:16:32;;;;;;;2.45;1.58;;;23.90;30.10;;;;;;5128945;27;20261;-45
2022/03/22 12:19:25;;;;;;;1.58;1.48;;;25.50;29.70;;;;;;5120818;27;20235;-60
2022/03/22 12:22:09;;;;;;;1.42;1.33;;;25.20;29.40;;;;;;5117885;27;20800;-55
2022/03/22 12:24:56;;;;;;;1.77;1.40;;;23.70;29.40;;;;;;5122602;27;20236;-60
2022/03/22 12:27:57;;;;;;;2.30;1.98;;;22.80;30.00;;;;;;5119082;27;20241;-60
2022/03/22 12:30:43;;;;;;;1.90;1.80;;;21.60;30.40;;;;;;5126674;27;20203;-54
2022/03/22 12:33:28;;;;;;;5.20;3.33;;;20.30;31.90;;;;;;5134181;27;20222;-55
2022/03/22 12:36:13;;;;;;;1.85;1.75;;;19.00;32.80;;;;;;5125326;27;20228;-61
2022/03/22 12:38:58;;;;;;;1.45;1.40;;;18.30;34.00;;;;;;5115845;27;20211;-62
2022/03/22 12:41:43;;;;;;;1.48;1.38;;;17.30;34.50;;;;;;5121667;27;20363;-60
2022/03/22 12:44:27;;;;;;;1.63;1.50;;;16.80;35.20;;;;;;5123373;27;20252;-55
2022/03/22 12:47:12;;;;;;;1.47;1.20;;;16.80;35.00;;;;;;5126402;27;20251;-48
2022/03/22 12:49:56;;;;;;;1.43;1.33;;;16.80;35.30;;;;;;5124333;27;20196;-59
2022/03/22 12:52:41;;;;;;;1.23;1.23;;;16.60;34.80;;;;;;5108328;27;20190;-42
2022/03/22 12:55:27;;;;;;;1.43;1.43;;;16.50;36.10;;;;;;5120293;27;20206;-61
2022/03/22 12:58:11;;;;;;;2.20;1.83;;;16.30;36.30;;;;;;5116762;27;20272;-53
2022/03/22 13:00:57;;;;;;;2.27;1.60;;;16.30;37.10;;;;;;5116180;27;20192;-51
2022/03/22 13:03:46;;;;;;;2.97;1.83;;;16.40;36.10;;;;;;5120905;27;20213;-51
2022/03/22 13:06:32;;;;;;;2.50;1.20;;;16.40;36.50;;;;;;5117695;27;20197;-46
2022/03/22 13:12:20;;;;;;;2.40;1.45;;;18.60;35.80;;;;;;5119823;27;20195;-55
2022/03/22 13:15:23;;;;;;;3.33;1.40;;;21.30;32.80;;;;;;5119245;27;20221;-54
2022/03/22 13:18:08;;;;;;;2.38;1.48;;;22.90;30.60;;;;;;5141343;27;20191;-48
2022/03/22 13:20:52;;;;;;;1.35;1.25;;;25.00;29.50;;;;;;5131587;27;20272;-49
2022/03/22 13:23:38;;;;;;;1.20;1.17;;;23.60;29.90;;;;;;5116124;27;20219;-51
2022/03/22 13:26:22;;;;;;;2.67;1.25;;;21.80;30.00;;;;;;5117467;27;20207;-46
2022/03/22 13:29:19;;;;;;;1.33;0.98;;;20.70;30.10;;;;;;5111793;27;20248;-47
2022/03/22 13:32:05;;;;;;;1.38;1.23;;;19.80;30.90;;;;;;5138392;27;20274;-61
2022/03/22 13:35:02;;;;;;;1.40;1.25;;;19.20;31.10;;;;;;5132061;27;20238;-46
2022/03/22 13:37:52;;;;;;;1.48;1.30;;;18.70;31.80;;;;;;5125368;27;20199;-46
2022/03/22 13:40:42;;;;;;;0.80;0.80;;;19.40;32.30;;;;;;5120566;27;20225;-49
2022/03/22 13:43:27;;;;;;;1.05;1.05;;;21.00;29.90;;;;;;5132777;27;20198;-45
2022/03/22 13:46:12;;;;;;;1.52;1.20;;;23.30;29.60;;;;;;5126829;27;20187;-54
2022/03/22 13:48:56;;;;;;;1.42;1.33;;;25.50;28.70;;;;;;5126144;27;20236;-53
2022/03/22 13:51:40;;;;;;;8.07;2.08;;;26.80;27.30;;;;;;5120421;27;20188;-59
2022/03/22 13:54:25;;;;;;;0.93;0.93;;;28.00;26.20;;;;;;5127101;27;20231;-60
2022/03/22 13:57:09;;;;;;;1.10;1.00;;;28.30;26.70;;;;;;5115350;27;20264;-56
2022/03/22 14:00:01;;;;;;;1.65;1.00;;;29.60;26.80;;;;;;5121372;27;20200;-48
2022/03/22 14:02:46;;;;;;;1.70;1.58;;;29.40;26.70;;;;;;5112682;27;20255;-47
2022/03/22 14:05:33;;;;;;;1.85;1.30;;;29.20;25.90;;;;;;5126926;27;20190;-46
2022/03/22 14:08:19;;;;;;;1.38;1.27;;;29.10;25.30;;;;;;5113931;27;20187;-48
2022/03/22 14:11:03;;;;;;;1.30;1.20;;;28.40;26.10;;;;;;5117420;27;20195;-46
2022/03/22 14:13:47;;;;;;;1.65;1.02;;;28.50;25.30;;;;;;5127037;27;20234;-46
2022/03/22 14:16:32;;;;;;;2.20;1.00;;;28.20;25.40;;;;;;5114420;27;20187;-47
2022/03/22 14:19:18;;;;;;;1.10;1.10;;;29.00;24.80;;;;;;5117116;27;20199;-47
2022/03/22 14:22:03;;;;;;;0.80;0.80;;;29.10;25.40;;;;;;5111496;27;20195;-44
2022/03/22 14:24:50;;;;;;;1.08;1.08;;;29.30;26.60;;;;;;5136500;27;20192;-57
2022/03/22 14:27:35;;;;;;;1.17;1.10;;;30.00;25.00;;;;;;5117793;27;20254;-45
2022/03/22 14:30:23;;;;;;;0.90;0.90;;;29.80;24.80;;;;;;5132107;27;20191;-46
2022/03/22 14:33:15;;;;;;;1.50;1.00;;;29.20;24.20;;;;;;5116558;27;20187;-65
2022/03/22 14:35:59;;;;;;;1.10;1.10;;;29.20;24.00;;;;;;5120594;27;20196;-46
2022/03/22 14:38:43;;;;;;;1.00;1.00;;;29.60;24.60;;;;;;5117909;27;20196;-54
2022/03/22 14:41:30;;;;;;;1.48;1.38;;;29.30;24.00;;;;;;5114650;27;20354;-54
2022/03/22 14:44:14;;;;;;;1.27;1.15;;;27.80;25.20;;;;;;5126446;27;20206;-50
2022/03/22 14:47:00;;;;;;;0.90;0.90;;;29.60;24.60;;;;;;5126580;27;20237;-58
2022/03/22 14:49:44;;;;;;;0.98;0.98;;;29.30;24.70;;;;;;5110037;27;20207;-60
2022/03/22 14:55:33;;;;;;;1.02;1.02;;;28.50;24.10;;;;;;5128035;27;20290;-49
2022/03/22 15:01:23;;;;;;;1.42;1.33;;;29.50;25.50;;;;;;5120459;27;20218;-57
2022/03/22 15:04:09;;;;;;;2.40;1.25;;;30.00;24.80;;;;;;5128553;27;20237;-60
2022/03/22 15:06:54;;;;;;;0.90;0.90;;;30.30;24.50;;;;;;5125808;27;20288;-49
2022/03/22 15:09:39;;;;;;;2.25;1.60;;;29.90;25.10;;;;;;5126632;27;20199;-58
2022/03/22 15:12:23;;;;;;;1.30;1.20;;;30.80;24.60;;;;;;5115319;27;20262;-64